Time;durP1;ratioP1;P1;durP2;ratioP2;P2;SDS_P1;SDS_P2;PMS_P1;PMS_P2;Temp;Humidity;BMP_temperature;BMP_pressure;BME280_temperature;BME280_humidity;BME280_pressure;Samples;Min_cycle;Max_cycle;Signal;HPM_P1;HPM_P2
2021/01/17 00:03:11;;;;;;;41.43;19.40;;;1.90;77.50;;;;;;8202869;28;20469;-88
2021/01/17 00:07:57;;;;;;;35.30;18.50;;;2.00;77.40;;;;;;8216901;28;20210;-87
2021/01/17 00:11:57;;;;;;;37.27;18.60;;;2.00;77.40;;;;;;8218318;29;20262;-86
2021/01/17 00:15:58;;;;;;;40.17;21.30;;;2.00;77.10;;;;;;8219385;28;20493;-87
2021/01/17 00:19:59;;;;;;;48.67;19.77;;;2.00;77.40;;;;;;8186352;28;20650;-86
2021/01/17 00:24:04;;;;;;;37.67;19.20;;;1.90;77.10;;;;;;8221118;28;20457;-85
2021/01/17 00:28:09;;;;;;;35.53;18.90;;;2.00;77.10;;;;;;8211994;28;20453;-86
2021/01/17 00:32:10;;;;;;;40.83;19.40;;;2.00;76.60;;;;;;8220011;28;20498;-86
2021/01/17 00:36:24;;;;;;;37.33;18.70;;;2.00;76.90;;;;;;8223092;29;20491;-86
2021/01/17 00:40:43;;;;;;;38.23;20.87;;;2.00;77.00;;;;;;8217987;29;20450;-86
2021/01/17 00:44:45;;;;;;;38.83;20.00;;;2.00;77.70;;;;;;8209411;29;20466;-86
2021/01/17 00:48:52;;;;;;;34.27;17.73;;;2.00;77.00;;;;;;8230487;28;20895;-85
2021/01/17 00:52:56;;;;;;;34.60;19.33;;;2.10;76.40;;;;;;8229294;28;20461;-85
2021/01/17 00:57:05;;;;;;;43.50;19.93;;;2.00;76.50;;;;;;8219170;28;20474;-86
2021/01/17 01:01:06;;;;;;;37.20;20.93;;;2.10;76.40;;;;;;8207947;28;20477;-85
2021/01/17 01:05:07;;;;;;;44.90;22.80;;;2.10;76.40;;;;;;8216937;28;20446;-86
2021/01/17 01:09:14;;;;;;;39.07;22.00;;;2.10;75.70;;;;;;8219406;29;20194;-85
2021/01/17 01:13:15;;;;;;;42.47;21.00;;;2.10;76.10;;;;;;8213187;28;20517;-86
2021/01/17 01:17:17;;;;;;;39.50;19.33;;;2.10;76.80;;;;;;8218205;28;20547;-85
2021/01/17 01:21:32;;;;;;;45.27;21.40;;;2.10;77.10;;;;;;8180688;29;20198;-85
2021/01/17 01:25:33;;;;;;;45.07;21.50;;;2.10;77.30;;;;;;8219429;29;20458;-85
2021/01/17 01:29:34;;;;;;;40.33;21.67;;;2.00;77.40;;;;;;8215382;28;20454;-86
2021/01/17 01:33:34;;;;;;;47.53;23.50;;;2.10;77.60;;;;;;8220362;28;20249;-85
2021/01/17 01:37:39;;;;;;;46.30;22.40;;;2.10;77.70;;;;;;8221406;28;20473;-86
2021/01/17 01:41:42;;;;;;;45.77;21.47;;;2.10;77.70;;;;;;8216020;28;20203;-86
2021/01/17 01:45:43;;;;;;;50.70;22.03;;;2.10;77.80;;;;;;8212697;28;20457;-85
2021/01/17 01:49:44;;;;;;;43.17;22.63;;;2.10;78.00;;;;;;8182075;28;20528;-86
2021/01/17 01:53:46;;;;;;;45.20;22.40;;;2.10;77.90;;;;;;8184283;28;20537;-86
2021/01/17 01:57:48;;;;;;;44.60;20.90;;;2.10;78.10;;;;;;8213114;29;20462;-86
2021/01/17 02:01:49;;;;;;;42.93;19.70;;;2.20;78.20;;;;;;8211541;29;20430;-86
2021/01/17 02:06:10;;;;;;;49.90;20.93;;;2.20;77.80;;;;;;8203129;28;20451;-86
2021/01/17 02:10:11;;;;;;;48.97;25.17;;;2.20;77.70;;;;;;8216280;28;20191;-86
2021/01/17 02:14:16;;;;;;;38.40;23.00;;;2.20;78.10;;;;;;8213949;29;20633;-86
2021/01/17 02:18:17;;;;;;;46.07;22.17;;;2.20;78.40;;;;;;8205508;28;20449;-87
2021/01/17 02:22:23;;;;;;;44.23;22.13;;;2.10;78.50;;;;;;8215546;28;20210;-86
2021/01/17 02:26:24;;;;;;;44.33;23.00;;;2.10;78.80;;;;;;8209596;28;20451;-86
2021/01/17 02:30:32;;;;;;;45.50;24.00;;;2.10;79.80;;;;;;8219459;28;20439;-86
2021/01/17 02:34:33;;;;;;;50.03;22.03;;;2.10;79.70;;;;;;8220011;28;20462;-86
2021/01/17 02:39:02;;;;;;;52.17;21.13;;;2.10;80.00;;;;;;8209972;28;20955;-86
2021/01/17 02:43:05;;;;;;;52.23;21.63;;;2.00;80.20;;;;;;8216234;28;20452;-86
2021/01/17 02:47:06;;;;;;;57.10;26.67;;;2.00;80.70;;;;;;8214865;28;20509;-87
2021/01/17 02:51:07;;;;;;;56.93;24.40;;;2.10;81.00;;;;;;8210405;28;20455;-87
2021/01/17 02:55:09;;;;;;;46.17;20.57;;;2.10;81.10;;;;;;8224726;28;20254;-88
2021/01/17 02:59:14;;;;;;;45.50;26.30;;;2.10;81.30;;;;;;8212252;28;20454;-87
2021/01/17 03:03:21;;;;;;;50.13;23.20;;;2.20;81.30;;;;;;8217996;29;20446;-87
2021/01/17 03:07:23;;;;;;;48.10;23.30;;;2.20;81.50;;;;;;8209863;28;20470;-87
2021/01/17 03:11:24;;;;;;;43.67;22.50;;;2.20;81.50;;;;;;8206511;28;20505;-87
2021/01/17 03:15:28;;;;;;;54.73;24.40;;;2.20;81.50;;;;;;8193648;28;20470;-87
2021/01/17 03:19:29;;;;;;;51.17;23.30;;;2.20;81.70;;;;;;8205486;28;20327;-87
2021/01/17 03:23:30;;;;;;;53.00;23.43;;;2.20;82.00;;;;;;8205784;28;20450;-87
2021/01/17 03:27:32;;;;;;;47.17;23.80;;;2.20;82.00;;;;;;8184985;28;20258;-87
2021/01/17 03:31:32;;;;;;;50.87;26.03;;;2.10;81.70;;;;;;8188926;28;20691;-87
2021/01/17 03:35:33;;;;;;;53.50;25.07;;;2.20;81.90;;;;;;8205423;29;20469;-87
2021/01/17 03:39:34;;;;;;;46.47;22.93;;;2.20;81.80;;;;;;8209082;28;20183;-87
2021/01/17 03:43:34;;;;;;;49.73;24.03;;;2.20;81.80;;;;;;8209430;28;20198;-88
2021/01/17 03:47:35;;;;;;;53.37;24.20;;;2.20;81.80;;;;;;8180329;28;20206;-87
2021/01/17 03:51:40;;;;;;;45.73;23.83;;;2.20;81.50;;;;;;8214040;28;20442;-88
2021/01/17 03:55:44;;;;;;;43.63;23.07;;;2.30;81.30;;;;;;8209904;28;20474;-87
2021/01/17 03:59:45;;;;;;;42.60;25.47;;;2.30;81.20;;;;;;8190022;28;20461;-87
2021/01/17 04:03:49;;;;;;;58.53;25.57;;;2.30;81.40;;;;;;8209993;29;20191;-88
2021/01/17 04:07:50;;;;;;;51.10;23.67;;;2.30;81.60;;;;;;8193225;28;20517;-87
2021/01/17 04:11:57;;;;;;;41.27;21.20;;;2.30;82.00;;;;;;8196612;29;20257;-88
2021/01/17 04:15:57;;;;;;;56.83;25.67;;;2.30;81.90;;;;;;8208970;28;20222;-87
2021/01/17 04:19:58;;;;;;;47.80;24.83;;;2.30;81.90;;;;;;8200135;28;20855;-87
2021/01/17 04:23:59;;;;;;;57.33;24.87;;;2.30;81.90;;;;;;8213473;29;20709;-87
2021/01/17 04:28:00;;;;;;;58.87;24.50;;;2.30;81.90;;;;;;8203325;28;20194;-87
2021/01/17 04:32:00;;;;;;;47.93;23.27;;;2.40;81.60;;;;;;8214331;28;20686;-87
2021/01/17 04:36:02;;;;;;;45.90;24.30;;;2.40;81.40;;;;;;8216523;28;20973;-87
2021/01/17 04:40:03;;;;;;;49.80;23.53;;;2.40;81.50;;;;;;8197331;29;20206;-87
2021/01/17 04:44:06;;;;;;;53.17;22.13;;;2.40;81.50;;;;;;8182674;28;20454;-87
2021/01/17 04:48:17;;;;;;;63.20;23.20;;;2.40;81.40;;;;;;8223076;28;20451;-87
2021/01/17 04:52:24;;;;;;;48.30;23.40;;;2.30;81.30;;;;;;8217783;28;20461;-86
2021/01/17 04:56:37;;;;;;;52.20;23.80;;;2.30;81.40;;;;;;8218762;28;20485;-87
2021/01/17 05:00:44;;;;;;;43.70;21.40;;;2.30;81.40;;;;;;8216751;29;20450;-87
2021/01/17 05:05:14;;;;;;;51.00;22.80;;;2.30;81.60;;;;;;8217786;28;20438;-86
2021/01/17 05:09:23;;;;;;;49.13;25.03;;;2.30;81.60;;;;;;8219299;29;20950;-87
2021/01/17 05:13:25;;;;;;;38.77;21.47;;;2.30;81.20;;;;;;8214734;28;20462;-87
2021/01/17 05:17:25;;;;;;;50.70;24.17;;;2.40;81.80;;;;;;8199068;28;20500;-87
2021/01/17 05:21:27;;;;;;;39.97;19.73;;;2.40;81.30;;;;;;8199994;28;20534;-87
2021/01/17 05:25:29;;;;;;;43.03;20.43;;;2.40;81.50;;;;;;8199757;29;20202;-86
2021/01/17 05:29:32;;;;;;;40.00;21.50;;;2.50;81.40;;;;;;8216512;28;21073;-86
2021/01/17 05:33:33;;;;;;;48.03;21.37;;;2.50;81.30;;;;;;8216098;28;20482;-86
2021/01/17 05:37:50;;;;;;;42.00;20.17;;;2.50;81.20;;;;;;8215842;29;20470;-86
2021/01/17 05:42:05;;;;;;;42.57;20.47;;;2.60;81.30;;;;;;8210962;29;20426;-86
2021/01/17 05:46:12;;;;;;;44.03;22.30;;;2.60;81.30;;;;;;8215888;28;20442;-85
2021/01/17 05:50:13;;;;;;;44.63;21.80;;;2.60;81.30;;;;;;8211686;28;20461;-86
2021/01/17 05:54:24;;;;;;;42.33;22.00;;;2.60;81.30;;;;;;8216672;28;20525;-85
2021/01/17 05:58:31;;;;;;;46.20;23.30;;;2.60;81.20;;;;;;8212510;28;20438;-85
2021/01/17 06:02:33;;;;;;;49.47;22.60;;;2.70;81.10;;;;;;8211629;28;20452;-85
2021/01/17 06:06:36;;;;;;;45.80;21.90;;;2.70;81.10;;;;;;8211860;28;20521;-86
2021/01/17 06:10:37;;;;;;;50.03;20.07;;;2.70;81.10;;;;;;8209943;29;20485;-86
2021/01/17 06:14:45;;;;;;;40.90;21.30;;;2.70;81.10;;;;;;8212501;28;20462;-85
2021/01/17 06:18:58;;;;;;;41.87;20.20;;;2.70;81.20;;;;;;8212517;28;20443;-87
2021/01/17 06:23:05;;;;;;;43.50;19.70;;;2.70;81.20;;;;;;8212479;28;20751;-86
2021/01/17 06:27:09;;;;;;;41.70;21.63;;;2.80;81.20;;;;;;8214066;28;20998;-86
2021/01/17 06:31:21;;;;;;;38.33;19.63;;;2.80;81.10;;;;;;8213603;28;20462;-85
2021/01/17 06:35:30;;;;;;;51.37;22.47;;;2.90;81.10;;;;;;8212961;28;20493;-86
2021/01/17 06:39:41;;;;;;;45.90;21.10;;;2.90;80.90;;;;;;8211326;28;20442;-86
2021/01/17 06:43:43;;;;;;;37.77;18.33;;;3.00;80.90;;;;;;8213107;28;20951;-86
2021/01/17 06:47:55;;;;;;;38.33;20.07;;;3.00;80.80;;;;;;8220644;28;20551;-87
2021/01/17 06:52:03;;;;;;;40.70;20.50;;;3.10;80.70;;;;;;8215010;28;20446;-88
2021/01/17 06:56:14;;;;;;;39.80;21.37;;;3.10;80.70;;;;;;8212464;28;20943;-87
2021/01/17 07:00:16;;;;;;;45.77;24.93;;;3.10;80.80;;;;;;8205141;28;20796;-87
2021/01/17 07:04:44;;;;;;;45.30;20.77;;;3.10;80.80;;;;;;8214995;28;20457;-87
2021/01/17 07:08:53;;;;;;;46.20;21.63;;;3.10;81.10;;;;;;8216070;28;20470;-86
2021/01/17 07:13:22;;;;;;;48.40;22.10;;;3.10;81.70;;;;;;8211081;28;20430;-86
2021/01/17 07:17:30;;;;;;;54.00;24.60;;;3.10;82.20;;;;;;8213966;29;21004;-87
2021/01/17 07:21:39;;;;;;;49.50;22.80;;;3.00;82.70;;;;;;8212435;28;20470;-86
2021/01/17 07:25:46;;;;;;;40.17;20.30;;;3.00;83.40;;;;;;8217831;29;20419;-86
2021/01/17 07:29:52;;;;;;;43.67;22.00;;;3.00;84.00;;;;;;8214336;28;20450;-86
2021/01/17 07:33:53;;;;;;;43.43;22.60;;;3.00;84.40;;;;;;8209160;28;20501;-86
2021/01/17 07:38:00;;;;;;;55.87;23.60;;;3.10;84.60;;;;;;8204643;28;20578;-88
2021/01/17 07:42:09;;;;;;;50.73;23.47;;;3.10;84.40;;;;;;8217678;28;20451;-86
2021/01/17 07:46:16;;;;;;;52.47;26.30;;;3.10;84.40;;;;;;8218474;28;20497;-86
2021/01/17 07:50:23;;;;;;;49.30;22.87;;;3.10;84.50;;;;;;8209297;28;20516;-87
2021/01/17 07:54:29;;;;;;;50.40;24.13;;;3.10;84.60;;;;;;8220890;28;20493;-85
2021/01/17 07:58:35;;;;;;;58.97;27.37;;;3.20;84.80;;;;;;8209150;28;20450;-85
2021/01/17 08:02:37;;;;;;;45.70;23.33;;;3.20;84.70;;;;;;8211284;28;20460;-86
2021/01/17 08:06:38;;;;;;;49.67;25.63;;;3.20;84.50;;;;;;8215157;29;20435;-85
2021/01/17 08:10:44;;;;;;;53.77;23.47;;;3.30;84.10;;;;;;8214640;28;20473;-84
2021/01/17 08:15:13;;;;;;;45.93;24.80;;;3.40;83.80;;;;;;8204449;29;20245;-85
2021/01/17 08:19:33;;;;;;;43.83;22.63;;;3.40;83.60;;;;;;8216143;28;20441;-85
2021/01/17 08:24:11;;;;;;;50.97;24.30;;;3.50;83.60;;;;;;8207363;28;20486;-87
2021/01/17 08:28:36;;;;;;;52.63;22.20;;;3.70;83.60;;;;;;8208189;29;20809;-85
2021/01/17 08:32:41;;;;;;;47.13;25.00;;;3.80;83.70;;;;;;8210359;28;20521;-86
2021/01/17 08:36:43;;;;;;;46.57;22.80;;;3.90;83.90;;;;;;8210980;28;20525;-84
2021/01/17 08:40:47;;;;;;;53.07;24.60;;;3.90;84.10;;;;;;8206648;29;20446;-84
2021/01/17 08:44:48;;;;;;;59.33;26.77;;;3.90;84.60;;;;;;8198157;28;20501;-85
2021/01/17 08:48:55;;;;;;;89.13;43.97;;;4.00;84.40;;;;;;8228155;28;20454;-86
2021/01/17 08:53:12;;;;;;;59.97;30.20;;;4.00;84.60;;;;;;8224839;29;20235;-84
2021/01/17 08:57:42;;;;;;;52.03;27.07;;;4.10;84.80;;;;;;8217049;28;20504;-85
2021/01/17 09:02:00;;;;;;;46.57;24.37;;;4.10;84.80;;;;;;8213449;29;20450;-84
2021/01/17 09:06:17;;;;;;;49.67;23.83;;;4.20;84.90;;;;;;8217012;28;20439;-84
2021/01/17 09:10:22;;;;;;;53.83;26.87;;;4.20;85.00;;;;;;8219154;28;20434;-84
2021/01/17 09:14:28;;;;;;;49.80;24.40;;;4.30;85.00;;;;;;8214254;28;20452;-83
2021/01/17 09:18:41;;;;;;;50.90;23.80;;;4.30;84.80;;;;;;8214981;28;20878;-83
2021/01/17 09:22:44;;;;;;;45.37;23.13;;;4.30;84.80;;;;;;8214330;28;20530;-82
2021/01/17 09:26:55;;;;;;;46.70;26.03;;;4.30;85.10;;;;;;8221115;28;20466;-83
2021/01/17 09:30:59;;;;;;;58.37;25.37;;;4.40;84.90;;;;;;8217825;28;20940;-84
2021/01/17 09:35:06;;;;;;;54.60;25.47;;;4.40;85.40;;;;;;8223148;28;20573;-84
2021/01/17 09:39:13;;;;;;;54.20;26.20;;;4.40;85.20;;;;;;8214674;28;20447;-84
2021/01/17 09:43:22;;;;;;;62.03;24.80;;;4.40;85.40;;;;;;8221481;28;20418;-85
2021/01/17 09:47:37;;;;;;;53.27;25.40;;;4.50;85.50;;;;;;8226050;28;20511;-84
2021/01/17 09:51:47;;;;;;;60.60;33.20;;;4.60;85.50;;;;;;8201138;29;20467;-84
2021/01/17 09:55:51;;;;;;;69.60;34.20;;;4.70;85.10;;;;;;8214490;28;20467;-84
2021/01/17 09:59:57;;;;;;;79.13;35.53;;;4.60;85.20;;;;;;8197498;28;20460;-83
2021/01/17 10:04:04;;;;;;;64.33;28.87;;;4.60;85.50;;;;;;8209474;28;20194;-84
2021/01/17 10:08:08;;;;;;;54.93;25.57;;;4.70;85.90;;;;;;8194993;29;20893;-84
2021/01/17 10:12:13;;;;;;;56.67;23.90;;;4.80;85.40;;;;;;8215400;28;21303;-84
2021/01/17 10:16:27;;;;;;;54.20;23.03;;;4.90;84.90;;;;;;8215776;28;20475;-84
2021/01/17 10:20:35;;;;;;;53.40;25.27;;;4.80;84.90;;;;;;8212381;28;20563;-84
2021/01/17 10:24:36;;;;;;;133.47;53.73;;;4.70;85.10;;;;;;8216717;28;20457;-84
2021/01/17 10:28:47;;;;;;;113.33;49.17;;;4.60;85.90;;;;;;8220508;28;20450;-84
2021/01/17 10:33:09;;;;;;;69.67;31.47;;;4.70;86.20;;;;;;8200504;28;20497;-85
2021/01/17 10:37:17;;;;;;;56.50;26.27;;;4.80;86.40;;;;;;8215179;28;20485;-87
2021/01/17 10:41:25;;;;;;;64.03;25.90;;;4.90;86.90;;;;;;8214104;28;20445;-86
2021/01/17 10:45:34;;;;;;;59.30;26.53;;;5.00;87.10;;;;;;8212560;28;20468;-86
2021/01/17 10:49:46;;;;;;;59.43;26.63;;;5.10;87.20;;;;;;8224883;28;20500;-88
2021/01/17 10:53:52;;;;;;;43.47;21.23;;;5.20;87.00;;;;;;8207728;28;20448;-86
2021/01/17 10:57:54;;;;;;;42.17;20.43;;;5.30;87.00;;;;;;8214467;29;20545;-86
2021/01/17 11:01:56;;;;;;;40.00;20.17;;;5.40;87.00;;;;;;8213848;28;20449;-85
2021/01/17 11:06:22;;;;;;;31.10;17.57;;;5.40;87.00;;;;;;8198938;29;20516;-86
2021/01/17 11:10:29;;;;;;;31.87;16.80;;;5.40;87.50;;;;;;8216834;28;20517;-85
2021/01/17 11:14:39;;;;;;;40.13;18.27;;;5.50;87.80;;;;;;8224470;28;20465;-85
2021/01/17 11:18:48;;;;;;;38.80;16.30;;;5.50;87.60;;;;;;8225421;28;20464;-87
2021/01/17 11:23:00;;;;;;;42.17;18.33;;;5.50;87.60;;;;;;8209222;28;20189;-86
2021/01/17 11:27:13;;;;;;;52.57;20.07;;;5.50;88.40;;;;;;8213551;28;20499;-85
2021/01/17 11:31:22;;;;;;;36.50;18.60;;;5.50;88.90;;;;;;8218365;28;20825;-85
2021/01/17 11:35:34;;;;;;;39.23;18.90;;;5.50;89.20;;;;;;8218982;28;20484;-85
2021/01/17 11:39:49;;;;;;;30.30;16.93;;;5.50;89.50;;;;;;8231612;28;20483;-85
2021/01/17 11:44:12;;;;;;;40.13;17.27;;;5.50;89.80;;;;;;8220267;28;20449;-84
2021/01/17 11:48:13;;;;;;;40.60;19.00;;;5.60;90.00;;;;;;8213500;29;20457;-84
2021/01/17 11:52:14;;;;;;;38.60;18.80;;;5.60;90.10;;;;;;8217260;28;20576;-84
2021/01/17 11:56:14;;;;;;;55.77;25.03;;;5.70;90.10;;;;;;8216381;28;20226;-83
2021/01/17 12:00:19;;;;;;;30.93;16.60;;;5.80;90.10;;;;;;8213500;28;20174;-84
2021/01/17 12:04:26;;;;;;;27.60;13.70;;;6.00;90.00;;;;;;8212045;28;20449;-84
2021/01/17 12:08:46;;;;;;;26.87;12.60;;;6.20;89.40;;;;;;8209556;28;20435;-84
2021/01/17 12:12:47;;;;;;;27.00;13.40;;;6.30;88.70;;;;;;8223647;28;20445;-83
2021/01/17 12:17:02;;;;;;;37.93;12.80;;;6.30;88.60;;;;;;8205578;28;20984;-84
2021/01/17 12:21:03;;;;;;;25.40;12.87;;;6.30;88.90;;;;;;8213931;28;20191;-86
2021/01/17 12:25:16;;;;;;;36.47;16.27;;;6.30;89.10;;;;;;8221488;28;20513;-86
2021/01/17 12:29:20;;;;;;;35.93;15.80;;;6.20;89.30;;;;;;8221986;28;20441;-86
2021/01/17 12:33:31;;;;;;;33.60;16.73;;;6.20;89.50;;;;;;8213243;28;20507;-86
2021/01/17 12:37:39;;;;;;;35.73;16.57;;;6.30;89.70;;;;;;8210657;28;20506;-87
2021/01/17 12:41:44;;;;;;;41.03;18.30;;;6.30;89.70;;;;;;8219867;28;20458;-87
2021/01/17 12:45:45;;;;;;;39.97;16.77;;;6.30;89.80;;;;;;8225411;28;21029;-87
2021/01/17 12:49:53;;;;;;;30.30;16.10;;;6.30;89.70;;;;;;8188466;29;20433;-86
2021/01/17 12:53:58;;;;;;;46.23;18.77;;;6.30;89.60;;;;;;8219422;29;20480;-86
2021/01/17 12:58:07;;;;;;;34.67;18.50;;;6.20;89.80;;;;;;8218399;28;20965;-87
2021/01/17 13:02:12;;;;;;;32.00;15.13;;;6.30;90.00;;;;;;8222584;28;20529;-87
2021/01/17 13:06:19;;;;;;;55.93;19.93;;;6.30;90.00;;;;;;8195727;29;20454;-86
2021/01/17 13:10:23;;;;;;;34.87;18.27;;;6.40;90.00;;;;;;8228724;28;20518;-87
2021/01/17 13:14:24;;;;;;;51.63;19.27;;;6.30;89.90;;;;;;8225624;28;20430;-87
2021/01/17 13:18:28;;;;;;;42.23;16.00;;;6.40;90.00;;;;;;8242450;23;20507;-76
2021/01/17 13:22:33;;;;;;;52.60;22.10;;;6.40;90.00;;;;;;8232449;28;20436;-77
2021/01/17 13:26:39;;;;;;;47.43;21.27;;;6.40;90.10;;;;;;8238350;28;20474;-77
2021/01/17 13:30:41;;;;;;;50.40;21.87;;;6.50;90.20;;;;;;8214723;28;20477;-77
2021/01/17 13:34:47;;;;;;;58.40;23.57;;;6.50;90.30;;;;;;8231365;28;20481;-77
2021/01/17 13:39:00;;;;;;;59.03;24.10;;;6.50;90.30;;;;;;8225631;28;20499;-76
2021/01/17 13:43:06;;;;;;;62.43;24.63;;;6.60;90.30;;;;;;8215166;28;20461;-78
2021/01/17 13:47:07;;;;;;;60.43;28.27;;;6.60;90.40;;;;;;8215649;28;20468;-76
2021/01/17 13:51:09;;;;;;;62.17;25.60;;;6.70;90.70;;;;;;8226632;28;20449;-77
2021/01/17 13:55:15;;;;;;;75.43;31.63;;;6.70;90.40;;;;;;8230067;28;20470;-77
2021/01/17 13:59:16;;;;;;;60.57;26.13;;;6.80;90.40;;;;;;8226192;28;20508;-76
2021/01/17 14:03:18;;;;;;;65.57;26.20;;;6.80;90.30;;;;;;8211011;28;20503;-77
2021/01/17 14:07:28;;;;;;;71.77;28.30;;;6.80;90.30;;;;;;8227717;28;20677;-77
2021/01/17 14:11:29;;;;;;;64.67;28.50;;;6.90;90.40;;;;;;8228643;28;20449;-76
2021/01/17 14:15:30;;;;;;;67.33;27.70;;;7.10;90.50;;;;;;8203095;28;20498;-78
2021/01/17 14:19:31;;;;;;;59.93;23.70;;;7.30;90.50;;;;;;8225596;28;20512;-77
2021/01/17 14:23:32;;;;;;;52.20;20.20;;;7.50;90.10;;;;;;8232072;28;20190;-77
2021/01/17 14:27:34;;;;;;;46.67;22.87;;;7.60;89.60;;;;;;8205039;28;20477;-78
2021/01/17 14:31:39;;;;;;;54.80;22.60;;;7.70;89.00;;;;;;8219288;28;20662;-77
2021/01/17 14:35:53;;;;;;;54.13;20.63;;;7.60;88.60;;;;;;8228874;28;20532;-77
2021/01/17 14:39:54;;;;;;;46.50;20.93;;;7.60;88.70;;;;;;8222335;28;20441;-76
2021/01/17 14:43:55;;;;;;;45.47;18.00;;;7.60;88.40;;;;;;8206080;28;20458;-74
2021/01/17 14:47:59;;;;;;;37.13;16.60;;;7.60;88.00;;;;;;8217886;28;20222;-76
2021/01/17 14:52:05;;;;;;;36.03;18.20;;;7.60;87.60;;;;;;8218391;28;20450;-76
2021/01/17 14:56:08;;;;;;;30.97;14.87;;;7.50;87.60;;;;;;8227491;28;20221;-76
2021/01/17 15:00:10;;;;;;;41.07;15.80;;;7.50;87.60;;;;;;8206316;28;20445;-76
2021/01/17 15:04:15;;;;;;;33.33;13.50;;;7.40;87.70;;;;;;8200193;28;20461;-76
2021/01/17 15:08:18;;;;;;;33.87;13.70;;;7.40;87.70;;;;;;8225848;28;20484;-76
2021/01/17 15:12:26;;;;;;;36.60;15.10;;;7.30;87.60;;;;;;8226114;28;20445;-76
2021/01/17 15:16:33;;;;;;;29.67;14.30;;;7.20;87.70;;;;;;8215971;28;20465;-76
2021/01/17 15:20:35;;;;;;;37.83;16.27;;;7.10;87.70;;;;;;8221743;28;20621;-76
2021/01/17 15:24:42;;;;;;;35.23;14.60;;;7.10;88.00;;;;;;8225152;28;20813;-76
2021/01/17 15:28:51;;;;;;;39.03;17.03;;;7.00;88.20;;;;;;8194253;28;20473;-76
2021/01/17 15:32:55;;;;;;;28.73;15.70;;;7.00;88.60;;;;;;8215169;28;20918;-75
2021/01/17 15:37:06;;;;;;;41.47;14.90;;;7.00;88.80;;;;;;8228499;28;20545;-75
2021/01/17 15:41:12;;;;;;;38.23;16.50;;;6.90;88.80;;;;;;8226150;28;20456;-74
2021/01/17 15:45:14;;;;;;;45.97;17.30;;;6.90;88.90;;;;;;8219229;28;20451;-75
2021/01/17 15:49:19;;;;;;;30.00;15.00;;;6.90;89.00;;;;;;8215666;28;20449;-75
2021/01/17 15:53:28;;;;;;;33.70;16.80;;;6.90;89.20;;;;;;8226807;28;20512;-76
2021/01/17 15:57:29;;;;;;;33.53;15.37;;;6.80;89.20;;;;;;8222423;28;20461;-76
2021/01/17 16:01:35;;;;;;;42.30;19.30;;;6.80;89.20;;;;;;8225543;28;20460;-76
2021/01/17 16:05:43;;;;;;;32.77;17.97;;;6.70;89.00;;;;;;8217054;28;20454;-76
2021/01/17 16:09:49;;;;;;;44.60;16.07;;;6.70;89.20;;;;;;8226472;28;20461;-75
2021/01/17 16:14:04;;;;;;;29.47;16.13;;;6.70;89.20;;;;;;8222715;28;20879;-76
2021/01/17 16:18:07;;;;;;;44.47;15.60;;;6.60;89.20;;;;;;8216173;28;20576;-77
2021/01/17 16:22:13;;;;;;;37.73;17.40;;;6.50;89.50;;;;;;8217015;28;20476;-75
2021/01/17 16:26:14;;;;;;;40.63;16.10;;;6.50;90.00;;;;;;8211962;28;20468;-76
2021/01/17 16:30:22;;;;;;;40.70;18.63;;;6.60;90.10;;;;;;8212020;28;20528;-76
2021/01/17 16:34:35;;;;;;;34.57;17.00;;;6.60;90.20;;;;;;8211531;28;20237;-76
2021/01/17 16:38:40;;;;;;;40.67;18.50;;;6.70;90.20;;;;;;8198131;28;20572;-76
2021/01/17 16:42:43;;;;;;;48.87;16.47;;;6.80;90.10;;;;;;8226690;28;20441;-76
2021/01/17 16:46:46;;;;;;;38.50;16.27;;;6.80;90.00;;;;;;8214332;28;20454;-75
2021/01/17 16:50:53;;;;;;;42.00;17.90;;;6.80;89.70;;;;;;8219844;28;20461;-75
2021/01/17 16:54:54;;;;;;;38.03;16.50;;;6.80;89.40;;;;;;8201856;28;20506;-76
2021/01/17 16:59:10;;;;;;;36.73;19.60;;;6.80;88.80;;;;;;8222209;28;20437;-75
2021/01/17 17:03:11;;;;;;;63.87;20.90;;;6.70;89.10;;;;;;8220876;28;20444;-76
2021/01/17 17:07:15;;;;;;;38.27;18.07;;;6.60;89.20;;;;;;8229497;28;20456;-76
2021/01/17 17:11:25;;;;;;;56.70;23.73;;;6.50;88.80;;;;;;8218110;28;20678;-75
2021/01/17 17:15:33;;;;;;;40.30;19.30;;;6.40;89.00;;;;;;8214694;28;20479;-75
2021/01/17 17:19:37;;;;;;;40.83;19.73;;;6.40;89.90;;;;;;8220976;28;20535;-77
2021/01/17 17:23:46;;;;;;;46.93;20.67;;;6.40;90.10;;;;;;8209864;28;20461;-77
2021/01/17 17:27:48;;;;;;;36.00;18.70;;;6.40;90.20;;;;;;8231907;28;20448;-78
2021/01/17 17:31:52;;;;;;;48.13;20.03;;;6.50;90.10;;;;;;8233767;28;20436;-76
2021/01/17 17:35:53;;;;;;;26.07;14.50;;;6.50;90.10;;;;;;8231341;28;20475;-74
2021/01/17 17:40:00;;;;;;;34.27;16.40;;;6.40;89.80;;;;;;8226716;28;20453;-75
2021/01/17 17:44:01;;;;;;;40.20;17.50;;;6.40;89.70;;;;;;8211945;28;20606;-76
2021/01/17 17:48:06;;;;;;;33.97;15.40;;;6.40;89.60;;;;;;8226278;28;20460;-76
2021/01/17 17:52:11;;;;;;;32.87;14.00;;;6.40;89.60;;;;;;8224281;28;20451;-77
2021/01/17 17:56:16;;;;;;;29.07;15.37;;;6.40;89.60;;;;;;8231231;28;20472;-77
2021/01/17 18:00:21;;;;;;;30.00;13.17;;;6.40;89.70;;;;;;8223146;28;21185;-76
2021/01/17 18:04:21;;;;;;;23.17;14.97;;;6.40;89.60;;;;;;8206721;28;20442;-76
2021/01/17 18:08:22;;;;;;;40.43;16.27;;;6.50;89.60;;;;;;8223178;28;20580;-78
2021/01/17 18:12:38;;;;;;;37.17;14.90;;;6.50;89.50;;;;;;8222121;28;20178;-76
2021/01/17 18:16:50;;;;;;;33.47;15.43;;;6.50;89.50;;;;;;8214842;28;20476;-75
2021/01/17 18:20:51;;;;;;;29.30;15.30;;;6.50;89.60;;;;;;8229958;28;20515;-76
2021/01/17 18:24:52;;;;;;;28.53;15.47;;;6.50;89.60;;;;;;8215323;28;20503;-75
2021/01/17 18:28:54;;;;;;;26.67;16.50;;;6.50;89.50;;;;;;8203297;28;20506;-75
2021/01/17 18:32:58;;;;;;;43.33;20.10;;;6.60;89.40;;;;;;8231281;28;20210;-75
2021/01/17 18:36:59;;;;;;;33.30;17.13;;;6.60;89.40;;;;;;8224905;28;20476;-77
2021/01/17 18:41:04;;;;;;;55.93;19.93;;;6.60;89.30;;;;;;8224050;28;20309;-76
2021/01/17 18:45:08;;;;;;;45.63;26.10;;;6.70;89.20;;;;;;8226065;28;20280;-77
2021/01/17 18:49:10;;;;;;;77.87;41.73;;;6.60;89.20;;;;;;8231632;28;20437;-76
2021/01/17 18:53:10;;;;;;;62.23;26.87;;;6.60;89.50;;;;;;8210695;28;20467;-76
2021/01/17 18:57:11;;;;;;;48.90;25.13;;;6.60;89.50;;;;;;8208236;28;20468;-76
2021/01/17 19:01:12;;;;;;;50.30;22.57;;;6.60;89.40;;;;;;8223478;28;20197;-73
2021/01/17 19:05:12;;;;;;;37.87;22.63;;;6.60;89.40;;;;;;8224678;28;20194;-74
2021/01/17 19:09:18;;;;;;;44.07;23.07;;;6.60;89.40;;;;;;8223630;28;20189;-73
2021/01/17 19:13:19;;;;;;;44.60;20.50;;;6.60;89.40;;;;;;8221675;28;20464;-75
2021/01/17 19:17:24;;;;;;;38.23;19.30;;;6.60;89.30;;;;;;8222097;28;20511;-75
2021/01/17 19:21:25;;;;;;;33.17;15.97;;;6.60;89.30;;;;;;8219288;28;21071;-76
2021/01/17 19:25:28;;;;;;;28.27;15.07;;;6.50;89.10;;;;;;8210064;28;20460;-76
2021/01/17 19:29:39;;;;;;;24.20;14.00;;;6.50;89.30;;;;;;8221953;28;20438;-76
2021/01/17 19:33:49;;;;;;;38.37;17.27;;;6.60;89.20;;;;;;8225293;28;20869;-76
2021/01/17 19:37:54;;;;;;;28.97;13.40;;;6.60;89.10;;;;;;8222762;28;20507;-76
2021/01/17 19:42:10;;;;;;;31.57;15.60;;;6.50;88.80;;;;;;8220129;28;20454;-76
2021/01/17 19:46:17;;;;;;;18.73;11.63;;;6.60;88.70;;;;;;8208379;28;20477;-76
2021/01/17 19:50:18;;;;;;;28.20;14.10;;;6.60;88.80;;;;;;8206425;28;20457;-76
2021/01/17 19:54:57;;;;;;;28.90;14.10;;;6.60;88.90;;;;;;8231624;28;20603;-77
2021/01/17 19:59:01;;;;;;;20.57;11.70;;;6.60;89.10;;;;;;8215551;28;20445;-77
2021/01/17 20:03:05;;;;;;;38.20;13.80;;;6.60;89.20;;;;;;8223745;28;20438;-76
2021/01/17 20:07:12;;;;;;;23.53;12.47;;;6.60;89.10;;;;;;8200595;28;20437;-76
2021/01/17 20:11:16;;;;;;;24.80;11.00;;;6.70;88.80;;;;;;8243088;28;20189;-76
2021/01/17 20:15:25;;;;;;;20.70;9.70;;;6.70;88.60;;;;;;8225529;28;20476;-77
2021/01/17 20:19:26;;;;;;;22.40;9.47;;;6.70;88.80;;;;;;8199112;28;20450;-77
2021/01/17 20:23:26;;;;;;;28.40;10.73;;;6.70;88.90;;;;;;8193215;28;20473;-76
2021/01/17 20:27:44;;;;;;;18.83;10.50;;;6.70;89.20;;;;;;8235558;28;20531;-76
2021/01/17 20:31:45;;;;;;;20.60;10.00;;;6.70;89.30;;;;;;8230182;28;20461;-75
2021/01/17 20:35:46;;;;;;;17.90;9.10;;;6.70;89.40;;;;;;8201734;28;20550;-76
2021/01/17 20:40:11;;;;;;;22.47;8.50;;;6.60;89.60;;;;;;8230933;28;20190;-76
2021/01/17 20:44:13;;;;;;;18.73;8.77;;;6.60;89.70;;;;;;8231647;28;20192;-78
2021/01/17 20:48:14;;;;;;;21.40;7.77;;;6.60;89.80;;;;;;8193252;28;20480;-77
2021/01/17 20:52:15;;;;;;;18.33;8.90;;;6.60;90.00;;;;;;8210506;28;20482;-77
2021/01/17 20:56:17;;;;;;;16.30;8.27;;;6.50;90.00;;;;;;8227227;28;20218;-77
2021/01/17 21:00:23;;;;;;;26.00;8.40;;;6.50;90.10;;;;;;8224164;28;20957;-77
2021/01/17 21:04:24;;;;;;;24.20;10.97;;;6.50;90.10;;;;;;8222554;28;20441;-77
2021/01/17 21:08:26;;;;;;;14.63;7.93;;;6.50;90.10;;;;;;8220098;28;20456;-78